createdAt,value
2023-02-26T00:02:50.970Z,64.74
2023-02-26T00:08:12.801Z,63.82
2023-02-26T00:13:36.305Z,62.25
2023-02-26T00:19:00.940Z,62.31
2023-02-26T00:24:22.678Z,63.36
2023-02-26T00:29:44.724Z,61.69
2023-02-26T00:35:08.970Z,60.31
2023-02-26T00:40:48.548Z,62.42
2023-02-26T00:46:23.456Z,61.05
2023-02-26T00:52:05.542Z,63.14
2023-02-26T00:57:27.352Z,62.29
2023-02-26T01:02:49.371Z,61.80
2023-02-26T01:08:22.010Z,62.36
2023-02-26T01:13:44.022Z,63.96
2023-02-26T01:19:15.276Z,61.68
2023-02-26T01:24:37.691Z,63.25
2023-02-26T01:29:59.872Z,62.60
2023-02-26T01:35:32.409Z,62.93
2023-02-26T01:41:24.699Z,62.20
2023-02-26T01:47:11.643Z,63.03
2023-02-26T01:52:48.595Z,63.27
2023-02-26T01:58:11.481Z,63.25
2023-02-26T02:03:37.570Z,62.84
2023-02-26T02:08:59.469Z,64.29
2023-02-26T02:14:41.422Z,63.34
2023-02-26T02:20:57.205Z,63.52
2023-02-26T02:26:43.948Z,65.14
2023-02-26T02:32:14.660Z,62.09
2023-02-26T02:37:41.547Z,63.41
2023-02-26T02:43:19.633Z,60.96
2023-02-26T02:48:53.917Z,64.91
2023-02-26T02:54:20.629Z,62.92
2023-02-26T02:59:48.833Z,62.01
2023-02-26T03:05:10.919Z,63.95
2023-02-26T03:10:33.667Z,64.74
2023-02-26T03:16:03.223Z,63.79
2023-02-26T03:21:32.872Z,63.76
2023-02-26T03:26:59.604Z,65.84
2023-02-26T03:32:28.017Z,65.81
2023-02-26T03:37:55.447Z,65.37
2023-02-26T03:43:23.078Z,64.82
2023-02-26T03:48:48.348Z,65.27
2023-02-26T03:54:21.525Z,65.09
2023-02-26T03:59:43.454Z,63.97
2023-02-26T04:05:26.346Z,64.88
2023-02-26T04:11:00.496Z,65.55
2023-02-26T04:16:22.563Z,66.02
2023-02-26T04:21:44.547Z,66.21
2023-02-26T04:27:06.281Z,66.30
2023-02-26T04:32:28.034Z,65.80
2023-02-26T04:37:49.828Z,65.66
2023-02-26T04:43:11.543Z,64.26
2023-02-26T04:48:33.235Z,65.78
2023-02-26T04:53:55.388Z,65.33
2023-02-26T04:59:17.074Z,67.13
2023-02-26T05:04:38.883Z,66.27
2023-02-26T05:10:00.666Z,67.51
2023-02-26T05:15:22.442Z,65.88
2023-02-26T05:20:44.152Z,65.71
2023-02-26T05:26:05.848Z,67.03
2023-02-26T05:31:28.431Z,67.23
2023-02-26T05:36:50.116Z,64.58
2023-02-26T05:42:11.838Z,66.29
2023-02-26T05:47:34.273Z,66.42
2023-02-26T05:52:56.299Z,66.66
2023-02-26T05:58:18.033Z,66.23
2023-02-26T06:03:44.049Z,67.15
2023-02-26T06:09:05.758Z,66.70
2023-02-26T06:14:27.614Z,68.56
2023-02-26T06:19:49.372Z,68.66
2023-02-26T06:25:11.064Z,69.26
2023-02-26T06:30:32.877Z,67.34
2023-02-26T06:35:55.986Z,67.86
2023-02-26T06:41:17.770Z,68.15
2023-02-26T06:46:39.467Z,68.35
2023-02-26T06:52:01.283Z,66.73
2023-02-26T06:57:22.993Z,68.52
2023-02-26T07:02:44.716Z,68.42
2023-02-26T07:08:06.432Z,67.84
2023-02-26T07:13:28.138Z,68.11
2023-02-26T07:18:49.802Z,67.59
2023-02-26T07:24:11.507Z,67.87
2023-02-26T07:29:33.211Z,67.72
2023-02-26T07:34:55.181Z,68.67
2023-02-26T07:40:16.976Z,68.69
2023-02-26T07:45:38.666Z,67.46
2023-02-26T07:51:00.576Z,67.50
2023-02-26T07:56:22.393Z,69.22
2023-02-26T08:01:44.162Z,67.80
2023-02-26T08:07:05.958Z,70.88
2023-02-26T08:12:27.649Z,70.50
2023-02-26T08:17:52.365Z,69.67
2023-02-26T08:23:14.075Z,70.85
2023-02-26T08:28:36.584Z,68.17
2023-02-26T08:33:58.263Z,68.10
2023-02-26T08:39:19.970Z,68.01
2023-02-26T08:44:42.925Z,67.49
2023-02-26T08:50:04.966Z,67.24
2023-02-26T08:55:26.782Z,67.92
2023-02-26T09:00:48.879Z,66.74
2023-02-26T09:06:10.731Z,66.48
2023-02-26T09:11:32.502Z,67.67
2023-02-26T09:16:54.256Z,68.05
2023-02-26T09:22:15.976Z,67.42
2023-02-26T09:27:37.720Z,67.23
2023-02-26T09:32:59.459Z,68.76
2023-02-26T09:38:21.179Z,68.26
2023-02-26T09:44:21.861Z,68.23
2023-02-26T09:50:07.041Z,67.25
2023-02-26T09:55:43.602Z,66.95
2023-02-26T10:01:16.022Z,68.67
2023-02-26T10:06:58.291Z,69.18
2023-02-26T10:12:22.830Z,69.46
2023-02-26T10:18:09.477Z,70.14
2023-02-26T10:23:50.700Z,68.43
2023-02-26T10:29:23.266Z,67.57
2023-02-26T10:35:09.105Z,68.63
2023-02-26T10:40:47.584Z,66.92
2023-02-26T10:46:09.346Z,66.22
2023-02-26T10:51:37.631Z,65.67
2023-02-26T10:56:59.405Z,65.39
2023-02-26T11:02:44.442Z,64.21
2023-02-26T11:08:28.214Z,65.55
2023-02-26T11:13:50.127Z,63.60
2023-02-26T11:19:14.835Z,63.96
2023-02-26T11:24:40.723Z,63.28
2023-02-26T11:30:18.639Z,62.87
2023-02-26T11:35:40.881Z,62.27
2023-02-26T11:41:03.104Z,62.96
2023-02-26T11:46:28.888Z,61.34
2023-02-26T11:52:08.352Z,61.60
2023-02-26T11:57:32.406Z,61.56
2023-02-26T12:03:01.006Z,61.48
2023-02-26T12:08:30.593Z,64.30
2023-02-26T12:14:05.425Z,65.35
2023-02-26T12:20:15.100Z,64.97
2023-02-26T12:26:11.628Z,64.73
2023-02-26T12:31:54.500Z,62.04
2023-02-26T12:37:48.568Z,62.08
2023-02-26T12:43:40.584Z,62.85
2023-02-26T12:49:32.957Z,62.07
2023-02-26T12:55:12.391Z,63.05
2023-02-26T13:01:12.049Z,62.26
2023-02-26T13:06:58.299Z,62.17
2023-02-26T13:12:23.102Z,59.44
2023-02-26T13:18:05.261Z,59.06
2023-02-26T13:23:38.450Z,59.31
2023-02-26T13:29:16.884Z,59.37
2023-02-26T13:34:41.596Z,58.71
2023-02-26T13:40:21.724Z,57.71
2023-02-26T13:46:03.153Z,56.94
2023-02-26T13:51:50.947Z,55.72
2023-02-26T13:57:35.435Z,55.33
2023-02-26T14:03:17.375Z,53.43
2023-02-26T14:08:45.667Z,53.45
2023-02-26T14:14:18.770Z,55.33
2023-02-26T14:19:42.103Z,55.35
2023-02-26T14:25:25.482Z,54.11
2023-02-26T14:30:51.556Z,54.54
2023-02-26T14:36:32.089Z,53.08
2023-02-26T14:42:01.158Z,55.04
2023-02-26T14:47:23.265Z,53.71
2023-02-26T14:53:09.448Z,52.04
2023-02-26T14:58:49.924Z,51.41
2023-02-26T15:04:36.745Z,51.05
2023-02-26T15:10:42.583Z,51.09
2023-02-26T15:16:20.288Z,51.87
2023-02-26T15:21:52.819Z,51.32
2023-02-26T15:27:18.707Z,51.23
2023-02-26T15:32:41.349Z,51.24
2023-02-26T15:38:04.136Z,52.00
2023-02-26T15:43:28.418Z,52.42
2023-02-26T15:48:50.099Z,52.25
2023-02-26T15:54:19.090Z,51.30
2023-02-26T15:59:47.263Z,50.55
2023-02-26T16:05:14.569Z,50.42
2023-02-26T16:10:40.598Z,49.18
2023-02-26T16:16:15.535Z,49.11
2023-02-26T16:21:40.227Z,48.58
2023-02-26T16:27:08.826Z,48.71
2023-02-26T16:32:33.868Z,49.23
2023-02-26T16:37:55.692Z,48.93
2023-02-26T16:43:23.540Z,48.37
2023-02-26T16:48:53.298Z,48.14
2023-02-26T16:54:22.413Z,46.69
2023-02-26T16:59:51.242Z,48.73
2023-02-26T17:05:24.946Z,47.49
2023-02-26T17:10:55.020Z,47.14
2023-02-26T17:16:16.838Z,47.98
2023-02-26T17:21:44.734Z,47.61
2023-02-26T17:27:09.892Z,47.12
2023-02-26T17:32:31.873Z,47.98
2023-02-26T17:37:53.959Z,48.43
2023-02-26T17:43:16.612Z,48.81
2023-02-26T17:48:38.712Z,49.70
2023-02-26T17:54:00.617Z,50.26
2023-02-26T17:59:22.473Z,50.94
2023-02-26T18:04:44.311Z,49.99
2023-02-26T18:10:07.086Z,50.44
2023-02-26T18:15:28.830Z,50.07
2023-02-26T18:20:51.112Z,50.64
2023-02-26T18:26:15.810Z,50.11
2023-02-26T18:31:38.130Z,50.15
2023-02-26T18:37:00.229Z,49.70
2023-02-26T18:42:25.224Z,49.40
2023-02-26T18:47:48.291Z,49.18
2023-02-26T18:53:11.869Z,49.83
2023-02-26T18:58:33.605Z,49.37
2023-02-26T19:03:56.165Z,49.96
2023-02-26T19:09:17.985Z,49.90
2023-02-26T19:14:39.920Z,50.97
2023-02-26T19:20:02.269Z,49.95
2023-02-26T19:25:26.874Z,50.68
2023-02-26T19:30:48.711Z,50.98
2023-02-26T19:36:10.855Z,50.28
2023-02-26T19:41:32.879Z,50.90
2023-02-26T19:46:55.304Z,51.21
2023-02-26T19:52:17.054Z,50.66
2023-02-26T19:57:39.425Z,51.34
2023-02-26T20:03:01.271Z,51.44
2023-02-26T20:08:26.828Z,51.75
2023-02-26T20:13:48.584Z,51.18
2023-02-26T20:19:10.424Z,52.42
2023-02-26T20:24:33.010Z,51.72
2023-02-26T20:29:55.339Z,52.23
2023-02-26T20:35:17.134Z,52.34
2023-02-26T20:40:39.646Z,52.99
2023-02-26T20:46:02.124Z,53.36
2023-02-26T20:51:23.868Z,52.28
2023-02-26T20:56:46.861Z,53.20
2023-02-26T21:02:12.336Z,53.10
2023-02-26T21:07:34.594Z,53.63
2023-02-26T21:12:56.370Z,53.10
2023-02-26T21:18:18.124Z,53.76
2023-02-26T21:23:39.908Z,54.00
2023-02-26T21:29:02.700Z,53.75
2023-02-26T21:34:33.443Z,54.37
2023-02-26T21:39:55.449Z,54.03
2023-02-26T21:45:18.417Z,54.34
2023-02-26T21:50:40.162Z,54.99
2023-02-26T21:56:02.200Z,54.93
2023-02-26T22:01:24.114Z,55.31
2023-02-26T22:06:46.471Z,55.76
2023-02-26T22:12:08.401Z,54.19
2023-02-26T22:17:31.058Z,55.56
2023-02-26T22:22:52.893Z,55.83
2023-02-26T22:28:14.727Z,56.71
2023-02-26T22:33:36.427Z,56.47
2023-02-26T22:38:59.239Z,56.54
2023-02-26T22:44:21.015Z,56.16
2023-02-26T22:49:42.854Z,57.28
2023-02-26T22:55:05.491Z,58.00
2023-02-26T23:00:27.877Z,56.97
2023-02-26T23:05:49.669Z,57.31
2023-02-26T23:11:11.386Z,57.07
2023-02-26T23:16:33.220Z,57.32
2023-02-26T23:21:56.347Z,57.32
2023-02-26T23:27:18.474Z,57.55
2023-02-26T23:32:40.329Z,58.09
2023-02-26T23:38:03.338Z,58.89
2023-02-26T23:43:25.330Z,59.29
2023-02-26T23:48:47.091Z,58.71
2023-02-26T23:54:09.675Z,58.65
2023-02-26T23:59:31.585Z,59.31
